sensor_id;sensor_type;location;lat;lon;timestamp;temperature;humidity
2010;DHT22;1008;47.404;8.502;2023-09-19T00:00:06;18.50;99.90
2010;DHT22;1008;47.404;8.502;2023-09-19T00:02:38;18.50;99.90
2010;DHT22;1008;47.404;8.502;2023-09-19T00:05:05;18.50;99.90
2010;DHT22;1008;47.404;8.502;2023-09-19T00:07:34;18.30;1.00
2010;DHT22;1008;47.404;8.502;2023-09-19T00:10:02;18.30;1.00
2010;DHT22;1008;47.404;8.502;2023-09-19T00:12:30;18.30;28.40
2010;DHT22;1008;47.404;8.502;2023-09-19T00:14:58;18.40;1.00
2010;DHT22;1008;47.404;8.502;2023-09-19T00:17:26;18.20;99.90
2010;DHT22;1008;47.404;8.502;2023-09-19T00:19:56;18.30;99.90
2010;DHT22;1008;47.404;8.502;2023-09-19T00:22:22;18.20;1.00
2010;DHT22;1008;47.404;8.502;2023-09-19T00:24:51;18.20;1.00
2010;DHT22;1008;47.404;8.502;2023-09-19T00:27:18;18.20;99.90
2010;DHT22;1008;47.404;8.502;2023-09-19T00:29:45;18.10;99.90
2010;DHT22;1008;47.404;8.502;2023-09-19T00:32:13;18.20;99.90
2010;DHT22;1008;47.404;8.502;2023-09-19T00:34:40;18.00;1.00
2010;DHT22;1008;47.404;8.502;2023-09-19T00:37:07;18.30;1.00
2010;DHT22;1008;47.404;8.502;2023-09-19T00:39:36;18.10;99.90
2010;DHT22;1008;47.404;8.502;2023-09-19T00:42:03;18.20;99.90
2010;DHT22;1008;47.404;8.502;2023-09-19T00:44:30;18.30;99.90
2010;DHT22;1008;47.404;8.502;2023-09-19T00:46:57;18.20;32.70
2010;DHT22;1008;47.404;8.502;2023-09-19T00:49:26;18.30;1.00
2010;DHT22;1008;47.404;8.502;2023-09-19T00:51:53;18.20;99.90
2010;DHT22;1008;47.404;8.502;2023-09-19T00:54:20;18.30;99.90
2010;DHT22;1008;47.404;8.502;2023-09-19T00:56:47;18.50;1.00
2010;DHT22;1008;47.404;8.502;2023-09-19T00:59:16;18.40;1.00
2010;DHT22;1008;47.404;8.502;2023-09-19T01:01:43;18.40;1.00
2010;DHT22;1008;47.404;8.502;2023-09-19T01:04:11;18.50;1.00
2010;DHT22;1008;47.404;8.502;2023-09-19T01:06:39;18.50;1.00
2010;DHT22;1008;47.404;8.502;2023-09-19T01:09:06;18.50;1.00
2010;DHT22;1008;47.404;8.502;2023-09-19T01:11:37;18.50;1.00
2010;DHT22;1008;47.404;8.502;2023-09-19T01:14:15;18.60;1.00
2010;DHT22;1008;47.404;8.502;2023-09-19T01:16:48;18.70;1.00
2010;DHT22;1008;47.404;8.502;2023-09-19T01:19:32;18.80;1.00
2010;DHT22;1008;47.404;8.502;2023-09-19T01:22:12;18.60;1.00
2010;DHT22;1008;47.404;8.502;2023-09-19T01:25:03;18.80;1.00
2010;DHT22;1008;47.404;8.502;2023-09-19T01:27:53;18.50;1.00
2010;DHT22;1008;47.404;8.502;2023-09-19T01:30:32;18.40;1.00
2010;DHT22;1008;47.404;8.502;2023-09-19T01:33:01;18.40;6.60
2010;DHT22;1008;47.404;8.502;2023-09-19T01:35:29;18.40;1.00
2010;DHT22;1008;47.404;8.502;2023-09-19T01:37:56;18.40;1.00
2010;DHT22;1008;47.404;8.502;2023-09-19T01:40:23;18.50;1.00
2010;DHT22;1008;47.404;8.502;2023-09-19T01:42:54;18.30;1.00
2010;DHT22;1008;47.404;8.502;2023-09-19T01:45:31;18.30;99.90
2010;DHT22;1008;47.404;8.502;2023-09-19T01:48:08;18.30;25.60
2010;DHT22;1008;47.404;8.502;2023-09-19T01:50:44;18.40;1.00
2010;DHT22;1008;47.404;8.502;2023-09-19T01:53:22;18.50;5.50
2010;DHT22;1008;47.404;8.502;2023-09-19T01:55:50;18.40;84.90
2010;DHT22;1008;47.404;8.502;2023-09-19T01:58:21;18.30;57.10
2010;DHT22;1008;47.404;8.502;2023-09-19T02:00:50;18.40;99.90
2010;DHT22;1008;47.404;8.502;2023-09-19T02:03:18;18.30;99.90
2010;DHT22;1008;47.404;8.502;2023-09-19T02:05:49;18.40;99.90
2010;DHT22;1008;47.404;8.502;2023-09-19T02:08:17;18.30;1.00
2010;DHT22;1008;47.404;8.502;2023-09-19T02:10:44;18.20;1.00
2010;DHT22;1008;47.404;8.502;2023-09-19T02:13:15;18.30;1.00
2010;DHT22;1008;47.404;8.502;2023-09-19T02:15:42;18.40;1.00
2010;DHT22;1008;47.404;8.502;2023-09-19T02:18:11;18.40;1.00
2010;DHT22;1008;47.404;8.502;2023-09-19T02:20:38;18.40;1.00
2010;DHT22;1008;47.404;8.502;2023-09-19T02:23:04;18.50;1.00
2010;DHT22;1008;47.404;8.502;2023-09-19T02:25:31;18.20;1.00
2010;DHT22;1008;47.404;8.502;2023-09-19T02:27:58;18.20;1.00
2010;DHT22;1008;47.404;8.502;2023-09-19T02:30:26;18.30;1.00
2010;DHT22;1008;47.404;8.502;2023-09-19T02:32:53;18.20;1.00
2010;DHT22;1008;47.404;8.502;2023-09-19T02:35:21;18.30;1.00
2010;DHT22;1008;47.404;8.502;2023-09-19T02:37:48;18.40;1.00
2010;DHT22;1008;47.404;8.502;2023-09-19T02:40:15;18.20;1.00
2010;DHT22;1008;47.404;8.502;2023-09-19T02:42:45;18.30;1.00
2010;DHT22;1008;47.404;8.502;2023-09-19T02:45:16;18.20;1.00
2010;DHT22;1008;47.404;8.502;2023-09-19T02:47:44;18.10;1.00
2010;DHT22;1008;47.404;8.502;2023-09-19T02:50:11;18.10;1.00
2010;DHT22;1008;47.404;8.502;2023-09-19T02:52:41;17.90;44.30
2010;DHT22;1008;47.404;8.502;2023-09-19T02:55:09;18.00;17.00
2010;DHT22;1008;47.404;8.502;2023-09-19T02:57:35;18.10;1.00
2010;DHT22;1008;47.404;8.502;2023-09-19T03:00:07;18.10;1.00
2010;DHT22;1008;47.404;8.502;2023-09-19T03:02:36;18.10;99.90
2010;DHT22;1008;47.404;8.502;2023-09-19T03:05:04;17.90;1.00
2010;DHT22;1008;47.404;8.502;2023-09-19T03:07:31;18.10;1.00
2010;DHT22;1008;47.404;8.502;2023-09-19T03:09:59;18.10;1.00
2010;DHT22;1008;47.404;8.502;2023-09-19T03:12:25;18.00;1.00
2010;DHT22;1008;47.404;8.502;2023-09-19T03:14:52;18.00;99.90
2010;DHT22;1008;47.404;8.502;2023-09-19T03:17:19;18.10;1.00
2010;DHT22;1008;47.404;8.502;2023-09-19T03:19:46;18.10;1.00
2010;DHT22;1008;47.404;8.502;2023-09-19T03:22:13;18.00;99.90
2010;DHT22;1008;47.404;8.502;2023-09-19T03:24:40;18.10;99.90
2010;DHT22;1008;47.404;8.502;2023-09-19T03:27:10;18.20;99.90
2010;DHT22;1008;47.404;8.502;2023-09-19T03:29:38;18.20;99.90
2010;DHT22;1008;47.404;8.502;2023-09-19T03:32:05;18.20;99.90
2010;DHT22;1008;47.404;8.502;2023-09-19T03:34:32;18.20;99.90
2010;DHT22;1008;47.404;8.502;2023-09-19T03:36:58;18.20;99.90
2010;DHT22;1008;47.404;8.502;2023-09-19T03:39:25;18.30;99.90
2010;DHT22;1008;47.404;8.502;2023-09-19T03:41:52;18.00;99.90
2010;DHT22;1008;47.404;8.502;2023-09-19T03:44:20;18.10;99.90
2010;DHT22;1008;47.404;8.502;2023-09-19T03:46:47;18.10;99.90
2010;DHT22;1008;47.404;8.502;2023-09-19T03:49:14;18.20;99.90
2010;DHT22;1008;47.404;8.502;2023-09-19T03:51:40;18.20;99.90
2010;DHT22;1008;47.404;8.502;2023-09-19T03:54:09;18.20;99.90
2010;DHT22;1008;47.404;8.502;2023-09-19T03:56:36;18.30;99.90
2010;DHT22;1008;47.404;8.502;2023-09-19T03:59:03;18.30;99.90
2010;DHT22;1008;47.404;8.502;2023-09-19T04:01:31;18.10;99.90
2010;DHT22;1008;47.404;8.502;2023-09-19T04:03:59;18.20;99.90
2010;DHT22;1008;47.404;8.502;2023-09-19T04:06:33;18.60;99.90
2010;DHT22;1008;47.404;8.502;2023-09-19T04:09:00;18.30;99.90
2010;DHT22;1008;47.404;8.502;2023-09-19T04:11:28;18.20;99.90
2010;DHT22;1008;47.404;8.502;2023-09-19T04:13:55;18.10;99.90
2010;DHT22;1008;47.404;8.502;2023-09-19T04:16:22;18.20;99.90
2010;DHT22;1008;47.404;8.502;2023-09-19T04:18:50;18.20;99.90
2010;DHT22;1008;47.404;8.502;2023-09-19T04:21:17;18.20;99.90
2010;DHT22;1008;47.404;8.502;2023-09-19T04:23:45;18.10;99.90
2010;DHT22;1008;47.404;8.502;2023-09-19T04:26:11;18.00;99.90
2010;DHT22;1008;47.404;8.502;2023-09-19T04:28:38;18.10;99.90
2010;DHT22;1008;47.404;8.502;2023-09-19T04:31:06;18.10;99.90
2010;DHT22;1008;47.404;8.502;2023-09-19T04:33:34;18.20;99.90
2010;DHT22;1008;47.404;8.502;2023-09-19T04:36:02;18.30;97.30
2010;DHT22;1008;47.404;8.502;2023-09-19T04:38:31;18.30;95.30
2010;DHT22;1008;47.404;8.502;2023-09-19T04:40:58;18.30;96.60
2010;DHT22;1008;47.404;8.502;2023-09-19T04:43:25;18.30;95.50
2010;DHT22;1008;47.404;8.502;2023-09-19T04:45:52;18.30;46.90
2010;DHT22;1008;47.404;8.502;2023-09-19T04:48:21;18.40;41.50
2010;DHT22;1008;47.404;8.502;2023-09-19T04:50:49;18.40;26.10
2010;DHT22;1008;47.404;8.502;2023-09-19T04:53:17;18.20;16.70
2010;DHT22;1008;47.404;8.502;2023-09-19T04:55:50;18.20;16.10
2010;DHT22;1008;47.404;8.502;2023-09-19T04:58:18;18.10;43.10
2010;DHT22;1008;47.404;8.502;2023-09-19T05:00:44;18.20;42.70
2010;DHT22;1008;47.404;8.502;2023-09-19T05:03:11;18.10;99.90
2010;DHT22;1008;47.404;8.502;2023-09-19T05:05:38;18.10;99.90
2010;DHT22;1008;47.404;8.502;2023-09-19T05:08:06;18.20;99.90
2010;DHT22;1008;47.404;8.502;2023-09-19T05:10:36;18.20;99.90
2010;DHT22;1008;47.404;8.502;2023-09-19T05:13:03;18.30;99.90
2010;DHT22;1008;47.404;8.502;2023-09-19T05:15:30;18.10;99.90
2010;DHT22;1008;47.404;8.502;2023-09-19T05:17:57;18.00;99.90
2010;DHT22;1008;47.404;8.502;2023-09-19T05:20:24;17.90;99.90
2010;DHT22;1008;47.404;8.502;2023-09-19T05:22:58;17.90;99.90
2010;DHT22;1008;47.404;8.502;2023-09-19T05:25:27;17.90;99.90
2010;DHT22;1008;47.404;8.502;2023-09-19T05:27:56;17.70;99.90
2010;DHT22;1008;47.404;8.502;2023-09-19T05:30:25;17.70;99.90
2010;DHT22;1008;47.404;8.502;2023-09-19T05:32:53;17.70;1.00
2010;DHT22;1008;47.404;8.502;2023-09-19T05:35:20;17.90;1.00
2010;DHT22;1008;47.404;8.502;2023-09-19T05:37:48;18.10;1.00
2010;DHT22;1008;47.404;8.502;2023-09-19T05:40:16;17.70;1.00
2010;DHT22;1008;47.404;8.502;2023-09-19T05:42:43;17.70;1.00
2010;DHT22;1008;47.404;8.502;2023-09-19T05:45:12;17.80;1.00
2010;DHT22;1008;47.404;8.502;2023-09-19T05:47:39;17.70;1.00
2010;DHT22;1008;47.404;8.502;2023-09-19T05:50:10;17.80;1.00
2010;DHT22;1008;47.404;8.502;2023-09-19T05:52:36;17.80;1.00
2010;DHT22;1008;47.404;8.502;2023-09-19T05:55:04;17.80;1.00
2010;DHT22;1008;47.404;8.502;2023-09-19T05:57:32;17.80;1.00
2010;DHT22;1008;47.404;8.502;2023-09-19T05:59:59;17.80;1.00
2010;DHT22;1008;47.404;8.502;2023-09-19T06:02:27;17.90;1.00
2010;DHT22;1008;47.404;8.502;2023-09-19T06:04:55;18.00;1.00
2010;DHT22;1008;47.404;8.502;2023-09-19T06:07:22;18.00;1.00
2010;DHT22;1008;47.404;8.502;2023-09-19T06:09:51;18.00;10.90
2010;DHT22;1008;47.404;8.502;2023-09-19T06:12:19;18.00;54.70
2010;DHT22;1008;47.404;8.502;2023-09-19T06:14:45;17.90;1.00
2010;DHT22;1008;47.404;8.502;2023-09-19T06:17:13;17.90;99.90
2010;DHT22;1008;47.404;8.502;2023-09-19T06:19:41;17.90;99.90
2010;DHT22;1008;47.404;8.502;2023-09-19T06:22:15;18.10;99.90
2010;DHT22;1008;47.404;8.502;2023-09-19T06:24:41;18.10;17.00
2010;DHT22;1008;47.404;8.502;2023-09-19T06:27:08;18.20;1.00
2010;DHT22;1008;47.404;8.502;2023-09-19T06:29:35;18.00;1.00
2010;DHT22;1008;47.404;8.502;2023-09-19T06:32:06;18.10;99.90
2010;DHT22;1008;47.404;8.502;2023-09-19T06:34:33;18.20;1.00
2010;DHT22;1008;47.404;8.502;2023-09-19T06:37:01;18.30;22.00
2010;DHT22;1008;47.404;8.502;2023-09-19T06:39:28;18.30;1.00
2010;DHT22;1008;47.404;8.502;2023-09-19T06:41:56;18.30;1.00
2010;DHT22;1008;47.404;8.502;2023-09-19T06:44:23;18.40;1.00
2010;DHT22;1008;47.404;8.502;2023-09-19T06:46:50;18.20;1.00
2010;DHT22;1008;47.404;8.502;2023-09-19T06:49:17;18.30;23.50
2010;DHT22;1008;47.404;8.502;2023-09-19T06:51:44;18.30;1.00
2010;DHT22;1008;47.404;8.502;2023-09-19T06:54:12;18.30;37.10
2010;DHT22;1008;47.404;8.502;2023-09-19T06:56:38;18.00;99.90
2010;DHT22;1008;47.404;8.502;2023-09-19T06:59:07;18.00;99.90
2010;DHT22;1008;47.404;8.502;2023-09-19T07:01:34;18.20;1.00
2010;DHT22;1008;47.404;8.502;2023-09-19T07:04:02;18.10;99.90
2010;DHT22;1008;47.404;8.502;2023-09-19T07:06:28;18.20;1.00
2010;DHT22;1008;47.404;8.502;2023-09-19T07:08:55;18.30;99.90
2010;DHT22;1008;47.404;8.502;2023-09-19T07:11:23;18.40;99.90
2010;DHT22;1008;47.404;8.502;2023-09-19T07:13:50;18.30;99.90
2010;DHT22;1008;47.404;8.502;2023-09-19T07:16:16;18.30;99.90
2010;DHT22;1008;47.404;8.502;2023-09-19T07:18:52;18.20;1.00
2010;DHT22;1008;47.404;8.502;2023-09-19T07:21:20;18.20;99.90
2010;DHT22;1008;47.404;8.502;2023-09-19T07:23:47;18.20;99.90
2010;DHT22;1008;47.404;8.502;2023-09-19T07:26:13;18.20;1.00
2010;DHT22;1008;47.404;8.502;2023-09-19T07:28:41;18.10;1.00
2010;DHT22;1008;47.404;8.502;2023-09-19T07:31:08;18.00;99.90
2010;DHT22;1008;47.404;8.502;2023-09-19T07:33:35;18.00;19.90
2010;DHT22;1008;47.404;8.502;2023-09-19T07:36:02;18.40;1.00
2010;DHT22;1008;47.404;8.502;2023-09-19T07:38:29;18.20;1.00
2010;DHT22;1008;47.404;8.502;2023-09-19T07:41:00;18.30;1.00
2010;DHT22;1008;47.404;8.502;2023-09-19T07:43:27;18.30;99.90
2010;DHT22;1008;47.404;8.502;2023-09-19T07:45:55;18.50;99.90
2010;DHT22;1008;47.404;8.502;2023-09-19T07:48:22;18.60;99.90
2010;DHT22;1008;47.404;8.502;2023-09-19T07:50:49;18.50;93.90
2010;DHT22;1008;47.404;8.502;2023-09-19T07:53:16;18.40;99.90
2010;DHT22;1008;47.404;8.502;2023-09-19T07:55:43;18.40;99.90
2010;DHT22;1008;47.404;8.502;2023-09-19T07:58:13;18.50;99.90
2010;DHT22;1008;47.404;8.502;2023-09-19T08:00:41;18.50;44.70
2010;DHT22;1008;47.404;8.502;2023-09-19T08:03:09;18.60;1.00
2010;DHT22;1008;47.404;8.502;2023-09-19T08:05:40;18.40;1.00
2010;DHT22;1008;47.404;8.502;2023-09-19T08:08:08;18.30;99.90
2010;DHT22;1008;47.404;8.502;2023-09-19T08:10:36;18.10;99.90
2010;DHT22;1008;47.404;8.502;2023-09-19T08:13:05;18.00;99.90
2010;DHT22;1008;47.404;8.502;2023-09-19T08:15:37;18.10;1.00
2010;DHT22;1008;47.404;8.502;2023-09-19T08:18:10;18.00;1.00
2010;DHT22;1008;47.404;8.502;2023-09-19T08:20:37;17.80;99.90
2010;DHT22;1008;47.404;8.502;2023-09-19T08:23:04;18.20;99.90
2010;DHT22;1008;47.404;8.502;2023-09-19T08:25:31;18.00;1.00
2010;DHT22;1008;47.404;8.502;2023-09-19T08:27:58;18.10;1.00
2010;DHT22;1008;47.404;8.502;2023-09-19T08:30:25;18.20;1.00
2010;DHT22;1008;47.404;8.502;2023-09-19T08:32:57;18.10;1.00
2010;DHT22;1008;47.404;8.502;2023-09-19T08:35:25;18.20;1.00
2010;DHT22;1008;47.404;8.502;2023-09-19T08:37:52;18.30;1.00
2010;DHT22;1008;47.404;8.502;2023-09-19T08:40:20;18.40;1.00
2010;DHT22;1008;47.404;8.502;2023-09-19T08:42:48;18.70;1.00
2010;DHT22;1008;47.404;8.502;2023-09-19T08:45:15;18.80;55.70
2010;DHT22;1008;47.404;8.502;2023-09-19T08:47:50;18.90;65.90
2010;DHT22;1008;47.404;8.502;2023-09-19T08:50:26;18.70;1.00
2010;DHT22;1008;47.404;8.502;2023-09-19T08:52:55;18.70;1.00
2010;DHT22;1008;47.404;8.502;2023-09-19T08:55:26;18.60;1.00
2010;DHT22;1008;47.404;8.502;2023-09-19T08:57:59;18.50;1.00
2010;DHT22;1008;47.404;8.502;2023-09-19T09:00:28;18.50;1.00
2010;DHT22;1008;47.404;8.502;2023-09-19T09:02:56;18.60;60.70
2010;DHT22;1008;47.404;8.502;2023-09-19T09:05:25;18.50;99.90
2010;DHT22;1008;47.404;8.502;2023-09-19T09:07:53;18.40;99.90
2010;DHT22;1008;47.404;8.502;2023-09-19T09:10:21;18.60;99.90
2010;DHT22;1008;47.404;8.502;2023-09-19T09:12:48;18.70;1.00
2010;DHT22;1008;47.404;8.502;2023-09-19T09:15:19;18.60;1.00
2010;DHT22;1008;47.404;8.502;2023-09-19T09:17:47;18.30;86.40
2010;DHT22;1008;47.404;8.502;2023-09-19T09:20:16;18.40;99.90
2010;DHT22;1008;47.404;8.502;2023-09-19T09:22:52;18.60;5.90
2010;DHT22;1008;47.404;8.502;2023-09-19T09:25:20;18.80;1.00
2010;DHT22;1008;47.404;8.502;2023-09-19T09:27:58;18.90;1.00
2010;DHT22;1008;47.404;8.502;2023-09-19T09:30:34;19.00;1.00
2010;DHT22;1008;47.404;8.502;2023-09-19T09:33:10;19.10;1.00
2010;DHT22;1008;47.404;8.502;2023-09-19T09:35:46;18.90;1.00
2010;DHT22;1008;47.404;8.502;2023-09-19T09:38:15;18.80;1.00
2010;DHT22;1008;47.404;8.502;2023-09-19T09:40:46;18.90;1.00
2010;DHT22;1008;47.404;8.502;2023-09-19T09:43:29;19.10;99.90
2010;DHT22;1008;47.404;8.502;2023-09-19T09:46:14;20.00;99.90
2010;DHT22;1008;47.404;8.502;2023-09-19T09:49:02;20.60;1.00
2010;DHT22;1008;47.404;8.502;2023-09-19T09:51:45;20.90;1.00
2010;DHT22;1008;47.404;8.502;2023-09-19T09:54:16;21.20;1.00
2010;DHT22;1008;47.404;8.502;2023-09-19T09:56:54;21.60;1.00
2010;DHT22;1008;47.404;8.502;2023-09-19T09:59:44;21.90;1.00
2010;DHT22;1008;47.404;8.502;2023-09-19T10:02:13;21.90;1.00
2010;DHT22;1008;47.404;8.502;2023-09-19T10:04:42;21.80;1.00
2010;DHT22;1008;47.404;8.502;2023-09-19T10:07:25;21.60;1.00
2010;DHT22;1008;47.404;8.502;2023-09-19T10:09:54;21.20;1.00
2010;DHT22;1008;47.404;8.502;2023-09-19T10:12:30;20.70;1.00
2010;DHT22;1008;47.404;8.502;2023-09-19T10:15:00;20.80;1.00
2010;DHT22;1008;47.404;8.502;2023-09-19T10:17:29;20.50;1.00
2010;DHT22;1008;47.404;8.502;2023-09-19T10:19:58;20.40;1.00
2010;DHT22;1008;47.404;8.502;2023-09-19T10:22:32;21.00;1.00
2010;DHT22;1008;47.404;8.502;2023-09-19T10:25:04;21.30;1.00
2010;DHT22;1008;47.404;8.502;2023-09-19T10:27:32;21.10;1.00
2010;DHT22;1008;47.404;8.502;2023-09-19T10:30:05;21.50;1.00
2010;DHT22;1008;47.404;8.502;2023-09-19T10:32:35;21.60;1.00
2010;DHT22;1008;47.404;8.502;2023-09-19T10:35:05;21.90;1.00
2010;DHT22;1008;47.404;8.502;2023-09-19T10:37:34;21.90;1.00
2010;DHT22;1008;47.404;8.502;2023-09-19T10:40:06;22.00;1.00
2010;DHT22;1008;47.404;8.502;2023-09-19T10:42:38;22.00;1.00
2010;DHT22;1008;47.404;8.502;2023-09-19T10:45:08;22.10;1.00
2010;DHT22;1008;47.404;8.502;2023-09-19T10:47:38;22.20;1.00
2010;DHT22;1008;47.404;8.502;2023-09-19T10:50:06;21.70;1.00
2010;DHT22;1008;47.404;8.502;2023-09-19T10:52:40;21.60;1.00
2010;DHT22;1008;47.404;8.502;2023-09-19T10:55:10;21.40;1.00
2010;DHT22;1008;47.404;8.502;2023-09-19T10:57:44;21.20;1.00
2010;DHT22;1008;47.404;8.502;2023-09-19T11:00:12;20.80;1.00
2010;DHT22;1008;47.404;8.502;2023-09-19T11:03:17;20.80;1.00
2010;DHT22;1008;47.404;8.502;2023-09-19T11:06:01;20.90;1.00
2010;DHT22;1008;47.404;8.502;2023-09-19T11:08:31;20.70;1.00
2010;DHT22;1008;47.404;8.502;2023-09-19T11:11:43;20.40;1.00
2010;DHT22;1008;47.404;8.502;2023-09-19T11:14:15;20.40;1.00
2010;DHT22;1008;47.404;8.502;2023-09-19T11:20:22;21.20;1.00
2010;DHT22;1008;47.404;8.502;2023-09-19T11:23:21;21.60;1.00
2010;DHT22;1008;47.404;8.502;2023-09-19T11:25:56;21.60;1.00
2010;DHT22;1008;47.404;8.502;2023-09-19T11:28:34;21.50;1.00
2010;DHT22;1008;47.404;8.502;2023-09-19T11:34:38;21.10;1.00
2010;DHT22;1008;47.404;8.502;2023-09-19T11:40:45;21.90;1.00
2010;DHT22;1008;47.404;8.502;2023-09-19T11:43:30;22.00;1.00
2010;DHT22;1008;47.404;8.502;2023-09-19T11:46:05;22.30;1.00
2010;DHT22;1008;47.404;8.502;2023-09-19T11:48:32;22.30;1.00
2010;DHT22;1008;47.404;8.502;2023-09-19T11:51:13;22.20;1.00
2010;DHT22;1008;47.404;8.502;2023-09-19T11:53:45;22.10;1.00
2010;DHT22;1008;47.404;8.502;2023-09-19T11:56:14;22.20;1.00
2010;DHT22;1008;47.404;8.502;2023-09-19T11:58:43;22.50;1.00
2010;DHT22;1008;47.404;8.502;2023-09-19T12:01:13;22.70;1.00
2010;DHT22;1008;47.404;8.502;2023-09-19T12:03:43;22.80;1.00
2010;DHT22;1008;47.404;8.502;2023-09-19T12:06:14;22.50;1.00
2010;DHT22;1008;47.404;8.502;2023-09-19T12:08:42;22.60;1.00
2010;DHT22;1008;47.404;8.502;2023-09-19T12:11:13;23.00;1.00
2010;DHT22;1008;47.404;8.502;2023-09-19T12:13:42;22.90;1.00
2010;DHT22;1008;47.404;8.502;2023-09-19T12:16:16;23.00;1.00
2010;DHT22;1008;47.404;8.502;2023-09-19T12:18:43;23.20;1.00
2010;DHT22;1008;47.404;8.502;2023-09-19T12:21:25;23.00;1.00
2010;DHT22;1008;47.404;8.502;2023-09-19T12:24:06;23.00;1.00
2010;DHT22;1008;47.404;8.502;2023-09-19T12:26:40;23.20;1.00
2010;DHT22;1008;47.404;8.502;2023-09-19T12:29:16;23.70;1.00
2010;DHT22;1008;47.404;8.502;2023-09-19T12:31:49;23.60;1.00
2010;DHT22;1008;47.404;8.502;2023-09-19T12:34:19;23.30;1.00
2010;DHT22;1008;47.404;8.502;2023-09-19T12:36:46;23.00;1.00
2010;DHT22;1008;47.404;8.502;2023-09-19T12:39:22;22.80;1.00
2010;DHT22;1008;47.404;8.502;2023-09-19T12:41:50;22.90;1.00
2010;DHT22;1008;47.404;8.502;2023-09-19T12:44:17;23.10;1.00
2010;DHT22;1008;47.404;8.502;2023-09-19T12:46:44;23.30;1.00
2010;DHT22;1008;47.404;8.502;2023-09-19T12:49:16;23.50;1.00
2010;DHT22;1008;47.404;8.502;2023-09-19T12:51:44;23.80;1.00
2010;DHT22;1008;47.404;8.502;2023-09-19T12:54:11;23.80;99.90
2010;DHT22;1008;47.404;8.502;2023-09-19T12:56:40;23.80;99.90
2010;DHT22;1008;47.404;8.502;2023-09-19T12:59:11;23.50;99.90
2010;DHT22;1008;47.404;8.502;2023-09-19T13:01:39;24.10;99.90
2010;DHT22;1008;47.404;8.502;2023-09-19T13:04:11;24.20;99.90
2010;DHT22;1008;47.404;8.502;2023-09-19T13:06:40;23.90;99.90
2010;DHT22;1008;47.404;8.502;2023-09-19T13:09:09;23.70;99.90
2010;DHT22;1008;47.404;8.502;2023-09-19T13:11:37;23.80;99.90
2010;DHT22;1008;47.404;8.502;2023-09-19T13:14:20;23.60;99.90
2010;DHT22;1008;47.404;8.502;2023-09-19T13:16:56;23.70;99.90
2010;DHT22;1008;47.404;8.502;2023-09-19T13:19:36;23.90;99.90
2010;DHT22;1008;47.404;8.502;2023-09-19T13:22:36;23.80;99.90
2010;DHT22;1008;47.404;8.502;2023-09-19T13:25:04;23.80;99.90
2010;DHT22;1008;47.404;8.502;2023-09-19T13:27:32;23.40;99.90
2010;DHT22;1008;47.404;8.502;2023-09-19T13:29:58;23.20;99.90
2010;DHT22;1008;47.404;8.502;2023-09-19T13:32:25;23.20;99.90
2010;DHT22;1008;47.404;8.502;2023-09-19T13:34:52;23.40;99.90
2010;DHT22;1008;47.404;8.502;2023-09-19T13:37:20;24.00;99.90
2010;DHT22;1008;47.404;8.502;2023-09-19T13:39:47;24.10;99.90
2010;DHT22;1008;47.404;8.502;2023-09-19T13:42:14;24.10;99.90
2010;DHT22;1008;47.404;8.502;2023-09-19T13:44:41;23.80;99.90
2010;DHT22;1008;47.404;8.502;2023-09-19T13:47:08;23.90;99.90
2010;DHT22;1008;47.404;8.502;2023-09-19T13:49:36;23.90;99.90
2010;DHT22;1008;47.404;8.502;2023-09-19T13:52:03;23.90;99.90
2010;DHT22;1008;47.404;8.502;2023-09-19T13:54:32;23.70;99.90
2010;DHT22;1008;47.404;8.502;2023-09-19T13:56:59;23.40;99.90
2010;DHT22;1008;47.404;8.502;2023-09-19T13:59:26;23.10;99.90
2010;DHT22;1008;47.404;8.502;2023-09-19T14:01:54;23.20;99.90
2010;DHT22;1008;47.404;8.502;2023-09-19T14:04:21;23.60;99.90
2010;DHT22;1008;47.404;8.502;2023-09-19T14:06:48;24.00;99.90
2010;DHT22;1008;47.404;8.502;2023-09-19T14:09:15;23.80;99.90
2010;DHT22;1008;47.404;8.502;2023-09-19T14:11:46;23.80;99.90
2010;DHT22;1008;47.404;8.502;2023-09-19T14:14:13;24.10;99.90
2010;DHT22;1008;47.404;8.502;2023-09-19T14:16:40;24.50;99.90
2010;DHT22;1008;47.404;8.502;2023-09-19T14:19:07;24.60;99.90
2010;DHT22;1008;47.404;8.502;2023-09-19T14:21:34;24.40;99.90
2010;DHT22;1008;47.404;8.502;2023-09-19T14:24:02;24.40;99.90
2010;DHT22;1008;47.404;8.502;2023-09-19T14:26:29;24.00;99.90
2010;DHT22;1008;47.404;8.502;2023-09-19T14:28:57;23.80;99.90
2010;DHT22;1008;47.404;8.502;2023-09-19T14:31:23;23.80;99.90
2010;DHT22;1008;47.404;8.502;2023-09-19T14:33:53;23.80;99.90
2010;DHT22;1008;47.404;8.502;2023-09-19T14:36:21;24.00;99.90
2010;DHT22;1008;47.404;8.502;2023-09-19T14:38:52;24.10;99.90
2010;DHT22;1008;47.404;8.502;2023-09-19T14:41:20;24.30;99.90
2010;DHT22;1008;47.404;8.502;2023-09-19T14:43:48;24.00;99.90
2010;DHT22;1008;47.404;8.502;2023-09-19T14:46:16;23.60;99.90
2010;DHT22;1008;47.404;8.502;2023-09-19T14:48:44;23.40;99.90
2010;DHT22;1008;47.404;8.502;2023-09-19T14:51:12;23.60;99.90
2010;DHT22;1008;47.404;8.502;2023-09-19T14:53:40;23.50;99.90
2010;DHT22;1008;47.404;8.502;2023-09-19T14:56:08;23.70;99.90
2010;DHT22;1008;47.404;8.502;2023-09-19T14:58:36;23.80;99.90
2010;DHT22;1008;47.404;8.502;2023-09-19T15:01:05;23.60;99.90
2010;DHT22;1008;47.404;8.502;2023-09-19T15:03:34;23.30;99.90
2010;DHT22;1008;47.404;8.502;2023-09-19T15:06:02;23.20;99.90
2010;DHT22;1008;47.404;8.502;2023-09-19T15:08:30;23.50;99.90
2010;DHT22;1008;47.404;8.502;2023-09-19T15:10:56;23.60;99.90
2010;DHT22;1008;47.404;8.502;2023-09-19T15:13:24;23.70;99.90
2010;DHT22;1008;47.404;8.502;2023-09-19T15:15:58;23.70;99.90
2010;DHT22;1008;47.404;8.502;2023-09-19T15:18:25;23.70;99.90
2010;DHT22;1008;47.404;8.502;2023-09-19T15:20:53;23.70;99.90
2010;DHT22;1008;47.404;8.502;2023-09-19T15:23:20;23.80;99.90
2010;DHT22;1008;47.404;8.502;2023-09-19T15:25:48;23.80;99.90
2010;DHT22;1008;47.404;8.502;2023-09-19T15:28:14;24.00;99.90
2010;DHT22;1008;47.404;8.502;2023-09-19T15:30:41;24.10;99.90
2010;DHT22;1008;47.404;8.502;2023-09-19T15:33:08;23.70;99.90
2010;DHT22;1008;47.404;8.502;2023-09-19T15:35:34;23.60;99.90
2010;DHT22;1008;47.404;8.502;2023-09-19T15:38:04;23.60;99.90
2010;DHT22;1008;47.404;8.502;2023-09-19T15:40:30;23.40;99.90
2010;DHT22;1008;47.404;8.502;2023-09-19T15:42:57;23.30;99.90
2010;DHT22;1008;47.404;8.502;2023-09-19T15:45:24;23.10;99.90
2010;DHT22;1008;47.404;8.502;2023-09-19T15:47:51;22.90;99.90
2010;DHT22;1008;47.404;8.502;2023-09-19T15:50:18;23.00;99.90
2010;DHT22;1008;47.404;8.502;2023-09-19T15:52:45;22.90;99.90
2010;DHT22;1008;47.404;8.502;2023-09-19T15:55:13;22.90;99.90
2010;DHT22;1008;47.404;8.502;2023-09-19T15:57:40;23.20;99.90
2010;DHT22;1008;47.404;8.502;2023-09-19T16:00:07;23.50;99.90
2010;DHT22;1008;47.404;8.502;2023-09-19T16:02:39;23.50;99.90
2010;DHT22;1008;47.404;8.502;2023-09-19T16:05:06;23.50;99.90
2010;DHT22;1008;47.404;8.502;2023-09-19T16:07:33;23.40;99.90
2010;DHT22;1008;47.404;8.502;2023-09-19T16:10:01;23.60;99.90
2010;DHT22;1008;47.404;8.502;2023-09-19T16:12:29;23.50;99.90
2010;DHT22;1008;47.404;8.502;2023-09-19T16:14:56;23.60;99.90
2010;DHT22;1008;47.404;8.502;2023-09-19T16:17:23;23.40;99.90
2010;DHT22;1008;47.404;8.502;2023-09-19T16:19:50;23.40;99.90
2010;DHT22;1008;47.404;8.502;2023-09-19T16:22:17;23.30;99.90
2010;DHT22;1008;47.404;8.502;2023-09-19T16:24:44;23.30;99.90
2010;DHT22;1008;47.404;8.502;2023-09-19T16:27:10;23.40;99.90
2010;DHT22;1008;47.404;8.502;2023-09-19T16:29:38;23.20;99.90
2010;DHT22;1008;47.404;8.502;2023-09-19T16:32:06;23.20;99.90
2010;DHT22;1008;47.404;8.502;2023-09-19T16:34:33;23.40;99.90